sensor_id;sensor_type;location;lat;lon;timestamp;temperature;humidity
16980;DHT22;42288;52.182;21.156;2023-10-09T00:00:50;5.30;99.90
16980;DHT22;42288;52.182;21.156;2023-10-09T00:03:19;5.40;99.90
16980;DHT22;42288;52.182;21.156;2023-10-09T00:05:48;5.40;99.90
16980;DHT22;42288;52.182;21.156;2023-10-09T00:08:16;5.20;99.90
16980;DHT22;42288;52.182;21.156;2023-10-09T00:10:44;5.20;99.90
16980;DHT22;42288;52.182;21.156;2023-10-09T00:13:14;5.20;99.90
16980;DHT22;42288;52.182;21.156;2023-10-09T00:15:41;5.10;99.90
16980;DHT22;42288;52.182;21.156;2023-10-09T00:18:07;5.00;99.90
16980;DHT22;42288;52.182;21.156;2023-10-09T00:20:38;5.00;99.90
16980;DHT22;42288;52.182;21.156;2023-10-09T00:23:09;5.00;99.90
16980;DHT22;42288;52.182;21.156;2023-10-09T00:25:51;4.90;99.90
16980;DHT22;42288;52.182;21.156;2023-10-09T00:28:39;4.80;99.90
16980;DHT22;42288;52.182;21.156;2023-10-09T00:31:10;4.80;99.90
16980;DHT22;42288;52.182;21.156;2023-10-09T00:33:44;4.70;99.90
16980;DHT22;42288;52.182;21.156;2023-10-09T00:36:10;4.60;99.90
16980;DHT22;42288;52.182;21.156;2023-10-09T00:38:39;4.60;99.90
16980;DHT22;42288;52.182;21.156;2023-10-09T00:41:17;4.50;99.90
16980;DHT22;42288;52.182;21.156;2023-10-09T00:43:48;4.50;99.90
16980;DHT22;42288;52.182;21.156;2023-10-09T00:46:16;4.40;99.90
16980;DHT22;42288;52.182;21.156;2023-10-09T00:48:55;4.40;99.90
16980;DHT22;42288;52.182;21.156;2023-10-09T00:51:21;4.40;99.90
16980;DHT22;42288;52.182;21.156;2023-10-09T00:53:49;4.30;99.90
16980;DHT22;42288;52.182;21.156;2023-10-09T00:56:18;4.30;99.90
16980;DHT22;42288;52.182;21.156;2023-10-09T00:58:48;4.20;99.90
16980;DHT22;42288;52.182;21.156;2023-10-09T01:01:20;4.20;99.90
16980;DHT22;42288;52.182;21.156;2023-10-09T01:03:51;4.20;99.90
16980;DHT22;42288;52.182;21.156;2023-10-09T01:06:17;4.20;99.90
16980;DHT22;42288;52.182;21.156;2023-10-09T01:08:47;4.20;99.90
16980;DHT22;42288;52.182;21.156;2023-10-09T01:11:31;4.20;99.90
16980;DHT22;42288;52.182;21.156;2023-10-09T01:13:57;4.20;99.90
16980;DHT22;42288;52.182;21.156;2023-10-09T01:16:38;4.20;99.90
16980;DHT22;42288;52.182;21.156;2023-10-09T01:19:07;4.20;99.90
16980;DHT22;42288;52.182;21.156;2023-10-09T01:21:39;4.20;99.90
16980;DHT22;42288;52.182;21.156;2023-10-09T01:24:05;4.20;99.90
16980;DHT22;42288;52.182;21.156;2023-10-09T01:26:38;4.20;99.90
16980;DHT22;42288;52.182;21.156;2023-10-09T01:29:13;4.20;99.90
16980;DHT22;42288;52.182;21.156;2023-10-09T01:31:44;4.10;99.90
16980;DHT22;42288;52.182;21.156;2023-10-09T01:34:18;4.20;99.90
16980;DHT22;42288;52.182;21.156;2023-10-09T01:36:44;4.20;99.90
16980;DHT22;42288;52.182;21.156;2023-10-09T01:39:14;4.10;99.90
16980;DHT22;42288;52.182;21.156;2023-10-09T01:41:51;4.10;99.90
16980;DHT22;42288;52.182;21.156;2023-10-09T01:44:24;4.00;99.90
16980;DHT22;42288;52.182;21.156;2023-10-09T01:46:52;4.00;99.90
16980;DHT22;42288;52.182;21.156;2023-10-09T01:49:21;3.90;99.90
16980;DHT22;42288;52.182;21.156;2023-10-09T01:51:57;4.00;99.90
16980;DHT22;42288;52.182;21.156;2023-10-09T01:54:26;3.90;99.90
16980;DHT22;42288;52.182;21.156;2023-10-09T01:57:05;3.90;99.90
16980;DHT22;42288;52.182;21.156;2023-10-09T01:59:32;3.90;99.90
16980;DHT22;42288;52.182;21.156;2023-10-09T02:01:58;4.00;99.90
16980;DHT22;42288;52.182;21.156;2023-10-09T02:04:26;4.20;99.90
16980;DHT22;42288;52.182;21.156;2023-10-09T02:06:52;4.20;99.90
16980;DHT22;42288;52.182;21.156;2023-10-09T02:09:18;4.20;99.90
16980;DHT22;42288;52.182;21.156;2023-10-09T02:11:51;4.30;99.90
16980;DHT22;42288;52.182;21.156;2023-10-09T02:14:17;4.20;99.90
16980;DHT22;42288;52.182;21.156;2023-10-09T02:16:48;4.20;99.90
16980;DHT22;42288;52.182;21.156;2023-10-09T02:19:34;4.20;99.90
16980;DHT22;42288;52.182;21.156;2023-10-09T02:22:03;4.30;99.90
16980;DHT22;42288;52.182;21.156;2023-10-09T02:24:39;4.40;99.90
16980;DHT22;42288;52.182;21.156;2023-10-09T02:27:19;4.50;99.90
16980;DHT22;42288;52.182;21.156;2023-10-09T02:30:04;4.60;99.90
16980;DHT22;42288;52.182;21.156;2023-10-09T02:32:41;4.70;99.90
16980;DHT22;42288;52.182;21.156;2023-10-09T02:35:11;4.80;99.90
16980;DHT22;42288;52.182;21.156;2023-10-09T02:37:53;4.80;99.90
16980;DHT22;42288;52.182;21.156;2023-10-09T02:40:18;4.80;99.90
16980;DHT22;42288;52.182;21.156;2023-10-09T02:42:50;4.80;99.90
16980;DHT22;42288;52.182;21.156;2023-10-09T02:45:16;4.90;99.90
16980;DHT22;42288;52.182;21.156;2023-10-09T02:47:44;4.90;99.90
16980;DHT22;42288;52.182;21.156;2023-10-09T02:50:14;4.90;99.90
16980;DHT22;42288;52.182;21.156;2023-10-09T02:52:47;5.00;99.90
16980;DHT22;42288;52.182;21.156;2023-10-09T02:55:15;5.00;99.90
16980;DHT22;42288;52.182;21.156;2023-10-09T02:57:50;5.00;99.90
16980;DHT22;42288;52.182;21.156;2023-10-09T03:00:21;5.20;99.90
16980;DHT22;42288;52.182;21.156;2023-10-09T03:02:55;5.20;99.90
16980;DHT22;42288;52.182;21.156;2023-10-09T03:05:23;5.10;99.90
16980;DHT22;42288;52.182;21.156;2023-10-09T03:07:49;5.10;99.90
16980;DHT22;42288;52.182;21.156;2023-10-09T03:10:17;5.10;99.90
16980;DHT22;42288;52.182;21.156;2023-10-09T03:12:43;5.20;99.90
16980;DHT22;42288;52.182;21.156;2023-10-09T03:15:08;5.10;99.90
16980;DHT22;42288;52.182;21.156;2023-10-09T03:17:34;5.10;99.90
16980;DHT22;42288;52.182;21.156;2023-10-09T03:20:07;5.20;99.90
16980;DHT22;42288;52.182;21.156;2023-10-09T03:22:40;5.20;99.90
16980;DHT22;42288;52.182;21.156;2023-10-09T03:25:06;5.20;99.90
16980;DHT22;42288;52.182;21.156;2023-10-09T03:27:41;5.10;99.90
16980;DHT22;42288;52.182;21.156;2023-10-09T03:30:14;5.10;99.90
16980;DHT22;42288;52.182;21.156;2023-10-09T03:32:48;5.10;99.90
16980;DHT22;42288;52.182;21.156;2023-10-09T03:35:21;5.20;99.90
16980;DHT22;42288;52.182;21.156;2023-10-09T03:37:53;5.20;99.90
16980;DHT22;42288;52.182;21.156;2023-10-09T03:40:22;5.20;99.90
16980;DHT22;42288;52.182;21.156;2023-10-09T03:42:48;5.30;99.90
16980;DHT22;42288;52.182;21.156;2023-10-09T03:45:14;5.30;99.90
16980;DHT22;42288;52.182;21.156;2023-10-09T03:47:56;5.30;99.90
16980;DHT22;42288;52.182;21.156;2023-10-09T03:50:42;5.20;99.90
16980;DHT22;42288;52.182;21.156;2023-10-09T03:53:09;5.30;99.90
16980;DHT22;42288;52.182;21.156;2023-10-09T03:55:38;5.30;99.90
16980;DHT22;42288;52.182;21.156;2023-10-09T03:58:05;5.30;99.90
16980;DHT22;42288;52.182;21.156;2023-10-09T04:00:32;5.30;99.90
16980;DHT22;42288;52.182;21.156;2023-10-09T04:03:06;5.30;99.90
16980;DHT22;42288;52.182;21.156;2023-10-09T04:05:32;5.30;99.90
16980;DHT22;42288;52.182;21.156;2023-10-09T04:07:58;5.30;99.90
16980;DHT22;42288;52.182;21.156;2023-10-09T04:10:27;5.20;99.90
16980;DHT22;42288;52.182;21.156;2023-10-09T04:13:08;5.30;99.90
16980;DHT22;42288;52.182;21.156;2023-10-09T04:15:37;5.30;99.90
16980;DHT22;42288;52.182;21.156;2023-10-09T04:18:03;5.30;99.90
16980;DHT22;42288;52.182;21.156;2023-10-09T04:20:31;5.40;99.90
16980;DHT22;42288;52.182;21.156;2023-10-09T04:22:59;5.30;99.90
16980;DHT22;42288;52.182;21.156;2023-10-09T04:25:30;5.40;99.90
16980;DHT22;42288;52.182;21.156;2023-10-09T04:28:06;5.40;99.90
16980;DHT22;42288;52.182;21.156;2023-10-09T04:30:36;5.40;99.90
16980;DHT22;42288;52.182;21.156;2023-10-09T04:33:06;5.40;99.90
16980;DHT22;42288;52.182;21.156;2023-10-09T04:35:37;5.40;99.90
16980;DHT22;42288;52.182;21.156;2023-10-09T04:38:03;5.40;99.90
16980;DHT22;42288;52.182;21.156;2023-10-09T04:40:31;5.50;99.90
16980;DHT22;42288;52.182;21.156;2023-10-09T04:43:06;5.50;99.90
16980;DHT22;42288;52.182;21.156;2023-10-09T04:45:36;5.60;99.90
16980;DHT22;42288;52.182;21.156;2023-10-09T04:48:20;5.60;99.90
16980;DHT22;42288;52.182;21.156;2023-10-09T04:50:59;5.60;99.90
16980;DHT22;42288;52.182;21.156;2023-10-09T04:53:48;5.60;99.90
16980;DHT22;42288;52.182;21.156;2023-10-09T04:56:32;5.60;99.90
16980;DHT22;42288;52.182;21.156;2023-10-09T04:58:58;5.60;99.90
16980;DHT22;42288;52.182;21.156;2023-10-09T05:01:30;5.60;99.90
16980;DHT22;42288;52.182;21.156;2023-10-09T05:04:09;5.60;99.90
16980;DHT22;42288;52.182;21.156;2023-10-09T05:06:41;5.50;99.90
16980;DHT22;42288;52.182;21.156;2023-10-09T05:09:21;5.50;99.90
16980;DHT22;42288;52.182;21.156;2023-10-09T05:11:47;5.40;99.90
16980;DHT22;42288;52.182;21.156;2023-10-09T05:14:19;5.40;99.90
16980;DHT22;42288;52.182;21.156;2023-10-09T05:16:53;5.40;99.90
16980;DHT22;42288;52.182;21.156;2023-10-09T05:19:26;5.30;99.90
16980;DHT22;42288;52.182;21.156;2023-10-09T05:22:10;5.30;99.90
16980;DHT22;42288;52.182;21.156;2023-10-09T05:24:58;5.40;99.90
16980;DHT22;42288;52.182;21.156;2023-10-09T05:27:24;5.40;99.90
16980;DHT22;42288;52.182;21.156;2023-10-09T05:30:08;5.30;99.90
16980;DHT22;42288;52.182;21.156;2023-10-09T05:32:53;5.40;99.90
16980;DHT22;42288;52.182;21.156;2023-10-09T05:35:45;5.30;99.90
16980;DHT22;42288;52.182;21.156;2023-10-09T05:38:31;5.30;99.90
16980;DHT22;42288;52.182;21.156;2023-10-09T05:41:01;5.40;99.90
16980;DHT22;42288;52.182;21.156;2023-10-09T05:43:46;5.40;99.90
16980;DHT22;42288;52.182;21.156;2023-10-09T05:46:30;5.40;99.90
16980;DHT22;42288;52.182;21.156;2023-10-09T05:49:01;5.50;99.90
16980;DHT22;42288;52.182;21.156;2023-10-09T05:51:44;5.50;99.90
16980;DHT22;42288;52.182;21.156;2023-10-09T05:54:18;5.50;99.90
16980;DHT22;42288;52.182;21.156;2023-10-09T05:57:10;5.50;99.90
16980;DHT22;42288;52.182;21.156;2023-10-09T05:59:54;5.50;99.90
16980;DHT22;42288;52.182;21.156;2023-10-09T06:02:38;5.50;99.90
16980;DHT22;42288;52.182;21.156;2023-10-09T06:05:23;5.60;99.90
16980;DHT22;42288;52.182;21.156;2023-10-09T06:08:17;5.60;99.90
16980;DHT22;42288;52.182;21.156;2023-10-09T06:10:50;5.60;99.90
16980;DHT22;42288;52.182;21.156;2023-10-09T06:13:31;5.70;99.90
16980;DHT22;42288;52.182;21.156;2023-10-09T06:16:06;5.70;99.90
16980;DHT22;42288;52.182;21.156;2023-10-09T06:18:46;5.80;99.90
16980;DHT22;42288;52.182;21.156;2023-10-09T06:21:31;5.70;99.90
16980;DHT22;42288;52.182;21.156;2023-10-09T06:24:16;5.80;99.90
16980;DHT22;42288;52.182;21.156;2023-10-09T06:26:42;5.90;99.90
16980;DHT22;42288;52.182;21.156;2023-10-09T06:29:29;5.90;99.90
16980;DHT22;42288;52.182;21.156;2023-10-09T06:32:02;5.90;99.90
16980;DHT22;42288;52.182;21.156;2023-10-09T06:34:51;5.90;99.90
16980;DHT22;42288;52.182;21.156;2023-10-09T06:37:18;6.00;99.90
16980;DHT22;42288;52.182;21.156;2023-10-09T06:39:54;6.00;99.90
16980;DHT22;42288;52.182;21.156;2023-10-09T06:42:24;6.10;99.90
16980;DHT22;42288;52.182;21.156;2023-10-09T06:45:16;6.10;99.90
16980;DHT22;42288;52.182;21.156;2023-10-09T06:47:44;6.20;99.90
16980;DHT22;42288;52.182;21.156;2023-10-09T06:50:30;6.20;99.90
16980;DHT22;42288;52.182;21.156;2023-10-09T06:53:14;6.20;99.90
16980;DHT22;42288;52.182;21.156;2023-10-09T06:55:40;6.30;99.90
16980;DHT22;42288;52.182;21.156;2023-10-09T06:58:19;6.30;99.90
16980;DHT22;42288;52.182;21.156;2023-10-09T07:00:51;6.40;99.90
16980;DHT22;42288;52.182;21.156;2023-10-09T07:03:35;6.40;99.90
16980;DHT22;42288;52.182;21.156;2023-10-09T07:06:09;6.50;99.90
16980;DHT22;42288;52.182;21.156;2023-10-09T07:08:38;6.60;99.90
16980;DHT22;42288;52.182;21.156;2023-10-09T07:11:07;6.50;99.90
16980;DHT22;42288;52.182;21.156;2023-10-09T07:13:58;6.40;99.90
16980;DHT22;42288;52.182;21.156;2023-10-09T07:16:27;6.50;99.90
16980;DHT22;42288;52.182;21.156;2023-10-09T07:19:04;6.60;99.90
16980;DHT22;42288;52.182;21.156;2023-10-09T07:21:51;6.70;99.90
16980;DHT22;42288;52.182;21.156;2023-10-09T07:24:20;6.70;99.90
16980;DHT22;42288;52.182;21.156;2023-10-09T07:26:50;6.80;99.90
16980;DHT22;42288;52.182;21.156;2023-10-09T07:29:20;6.90;99.90
16980;DHT22;42288;52.182;21.156;2023-10-09T07:31:49;7.00;99.90
16980;DHT22;42288;52.182;21.156;2023-10-09T07:34:23;7.00;99.90
16980;DHT22;42288;52.182;21.156;2023-10-09T07:37:25;7.10;99.90
16980;DHT22;42288;52.182;21.156;2023-10-09T07:39:56;7.50;99.90
16980;DHT22;42288;52.182;21.156;2023-10-09T07:42:26;7.60;99.90
16980;DHT22;42288;52.182;21.156;2023-10-09T07:44:59;7.70;99.90
16980;DHT22;42288;52.182;21.156;2023-10-09T07:47:37;7.80;99.90
16980;DHT22;42288;52.182;21.156;2023-10-09T07:50:35;7.90;99.90
16980;DHT22;42288;52.182;21.156;2023-10-09T07:53:14;8.00;99.90
16980;DHT22;42288;52.182;21.156;2023-10-09T07:55:40;8.20;99.90
16980;DHT22;42288;52.182;21.156;2023-10-09T07:58:11;8.10;99.90
16980;DHT22;42288;52.182;21.156;2023-10-09T08:00:37;8.30;99.90
16980;DHT22;42288;52.182;21.156;2023-10-09T08:03:23;8.40;99.90
16980;DHT22;42288;52.182;21.156;2023-10-09T08:05:52;8.30;99.90
16980;DHT22;42288;52.182;21.156;2023-10-09T08:08:19;8.50;99.90
16980;DHT22;42288;52.182;21.156;2023-10-09T08:10:54;8.60;99.90
16980;DHT22;42288;52.182;21.156;2023-10-09T08:13:38;8.80;99.90
16980;DHT22;42288;52.182;21.156;2023-10-09T08:16:25;8.80;99.90
16980;DHT22;42288;52.182;21.156;2023-10-09T08:19:04;9.00;99.90
16980;DHT22;42288;52.182;21.156;2023-10-09T08:21:48;9.10;99.90
16980;DHT22;42288;52.182;21.156;2023-10-09T08:24:34;9.20;99.90
16980;DHT22;42288;52.182;21.156;2023-10-09T08:27:18;9.10;99.90
16980;DHT22;42288;52.182;21.156;2023-10-09T08:30:05;9.10;99.90
16980;DHT22;42288;52.182;21.156;2023-10-09T08:32:50;9.10;99.90
16980;DHT22;42288;52.182;21.156;2023-10-09T08:35:52;8.90;99.90
16980;DHT22;42288;52.182;21.156;2023-10-09T08:38:21;9.00;99.90
16980;DHT22;42288;52.182;21.156;2023-10-09T08:40:51;9.00;99.90
16980;DHT22;42288;52.182;21.156;2023-10-09T08:43:21;8.90;99.90
16980;DHT22;42288;52.182;21.156;2023-10-09T08:45:53;8.90;99.90
16980;DHT22;42288;52.182;21.156;2023-10-09T08:48:20;9.10;99.90
16980;DHT22;42288;52.182;21.156;2023-10-09T08:50:50;9.20;99.90
16980;DHT22;42288;52.182;21.156;2023-10-09T08:53:16;9.40;99.90
16980;DHT22;42288;52.182;21.156;2023-10-09T08:55:43;9.40;99.90
16980;DHT22;42288;52.182;21.156;2023-10-09T08:58:09;9.50;99.90
16980;DHT22;42288;52.182;21.156;2023-10-09T09:00:47;9.60;99.90
16980;DHT22;42288;52.182;21.156;2023-10-09T09:03:14;9.80;99.90
16980;DHT22;42288;52.182;21.156;2023-10-09T09:05:45;9.90;99.90
16980;DHT22;42288;52.182;21.156;2023-10-09T09:08:22;9.90;99.90
16980;DHT22;42288;52.182;21.156;2023-10-09T09:10:59;9.90;99.90
16980;DHT22;42288;52.182;21.156;2023-10-09T09:13:38;9.90;99.90
16980;DHT22;42288;52.182;21.156;2023-10-09T09:16:13;10.00;99.90
16980;DHT22;42288;52.182;21.156;2023-10-09T09:18:53;10.10;99.90
16980;DHT22;42288;52.182;21.156;2023-10-09T09:21:56;10.20;99.90
16980;DHT22;42288;52.182;21.156;2023-10-09T09:24:24;10.40;99.90
16980;DHT22;42288;52.182;21.156;2023-10-09T09:26:51;10.50;99.90
16980;DHT22;42288;52.182;21.156;2023-10-09T09:32:12;10.80;99.70
16980;DHT22;42288;52.182;21.156;2023-10-09T09:34:46;11.00;99.70
16980;DHT22;42288;52.182;21.156;2023-10-09T09:37:19;11.00;99.90
16980;DHT22;42288;52.182;21.156;2023-10-09T09:39:46;11.10;99.20
16980;DHT22;42288;52.182;21.156;2023-10-09T09:42:18;11.10;99.20
16980;DHT22;42288;52.182;21.156;2023-10-09T09:44:51;11.10;98.30
16980;DHT22;42288;52.182;21.156;2023-10-09T09:47:17;11.10;98.60
16980;DHT22;42288;52.182;21.156;2023-10-09T09:49:53;11.20;98.60
16980;DHT22;42288;52.182;21.156;2023-10-09T09:52:28;11.30;98.20
16980;DHT22;42288;52.182;21.156;2023-10-09T09:54:54;11.70;98.80
16980;DHT22;42288;52.182;21.156;2023-10-09T09:57:23;12.00;97.90
16980;DHT22;42288;52.182;21.156;2023-10-09T09:59:51;12.20;97.20
16980;DHT22;42288;52.182;21.156;2023-10-09T10:02:27;12.50;96.90
16980;DHT22;42288;52.182;21.156;2023-10-09T10:04:57;12.40;96.60
16980;DHT22;42288;52.182;21.156;2023-10-09T10:07:25;12.50;94.90
16980;DHT22;42288;52.182;21.156;2023-10-09T10:09:53;12.50;95.10
16980;DHT22;42288;52.182;21.156;2023-10-09T10:15:13;12.60;94.40
16980;DHT22;42288;52.182;21.156;2023-10-09T10:20:24;12.70;94.60
16980;DHT22;42288;52.182;21.156;2023-10-09T10:22:52;12.80;94.00
16980;DHT22;42288;52.182;21.156;2023-10-09T10:25:37;12.70;93.20
16980;DHT22;42288;52.182;21.156;2023-10-09T10:28:25;12.70;92.60
16980;DHT22;42288;52.182;21.156;2023-10-09T10:31:11;12.70;92.50
16980;DHT22;42288;52.182;21.156;2023-10-09T10:36:26;12.70;92.80
16980;DHT22;42288;52.182;21.156;2023-10-09T10:39:10;12.60;92.20
16980;DHT22;42288;52.182;21.156;2023-10-09T10:41:37;12.60;93.10
16980;DHT22;42288;52.182;21.156;2023-10-09T10:44:24;12.60;93.20
16980;DHT22;42288;52.182;21.156;2023-10-09T10:47:00;12.70;92.00
16980;DHT22;42288;52.182;21.156;2023-10-09T10:49:27;12.60;92.80
16980;DHT22;42288;52.182;21.156;2023-10-09T10:52:02;12.60;91.70
16980;DHT22;42288;52.182;21.156;2023-10-09T10:54:41;12.40;91.80
16980;DHT22;42288;52.182;21.156;2023-10-09T10:57:16;12.40;92.10
16980;DHT22;42288;52.182;21.156;2023-10-09T10:59:57;12.40;91.80
16980;DHT22;42288;52.182;21.156;2023-10-09T11:02:58;12.30;92.50
16980;DHT22;42288;52.182;21.156;2023-10-09T11:05:41;12.40;92.60
16980;DHT22;42288;52.182;21.156;2023-10-09T11:08:09;12.40;92.80
16980;DHT22;42288;52.182;21.156;2023-10-09T11:10:35;12.40;93.40
16980;DHT22;42288;52.182;21.156;2023-10-09T11:13:01;12.20;92.00
16980;DHT22;42288;52.182;21.156;2023-10-09T11:15:37;12.20;92.90
16980;DHT22;42288;52.182;21.156;2023-10-09T11:18:09;12.10;92.40
16980;DHT22;42288;52.182;21.156;2023-10-09T11:20:51;12.00;93.00
16980;DHT22;42288;52.182;21.156;2023-10-09T11:23:30;12.10;92.00
16980;DHT22;42288;52.182;21.156;2023-10-09T11:25:59;12.20;93.10
16980;DHT22;42288;52.182;21.156;2023-10-09T11:28:44;12.10;92.60
16980;DHT22;42288;52.182;21.156;2023-10-09T11:31:22;12.10;92.20
16980;DHT22;42288;52.182;21.156;2023-10-09T11:33:50;12.00;93.40
16980;DHT22;42288;52.182;21.156;2023-10-09T11:36:17;12.10;92.80
16980;DHT22;42288;52.182;21.156;2023-10-09T11:38:47;12.10;92.90
16980;DHT22;42288;52.182;21.156;2023-10-09T11:41:16;12.10;93.70
16980;DHT22;42288;52.182;21.156;2023-10-09T11:43:50;12.10;92.80
16980;DHT22;42288;52.182;21.156;2023-10-09T11:46:23;12.10;92.50
16980;DHT22;42288;52.182;21.156;2023-10-09T11:49:13;12.10;92.80
16980;DHT22;42288;52.182;21.156;2023-10-09T11:52:08;12.10;93.00
16980;DHT22;42288;52.182;21.156;2023-10-09T11:54:35;12.20;92.40
16980;DHT22;42288;52.182;21.156;2023-10-09T11:57:01;12.10;92.80
16980;DHT22;42288;52.182;21.156;2023-10-09T11:59:28;12.10;92.50
16980;DHT22;42288;52.182;21.156;2023-10-09T12:01:55;12.10;91.70
16980;DHT22;42288;52.182;21.156;2023-10-09T12:04:26;12.00;91.80
16980;DHT22;42288;52.182;21.156;2023-10-09T12:06:56;12.10;91.90
16980;DHT22;42288;52.182;21.156;2023-10-09T12:09:32;12.10;92.40
16980;DHT22;42288;52.182;21.156;2023-10-09T12:12:06;12.10;92.30
16980;DHT22;42288;52.182;21.156;2023-10-09T12:14:35;12.10;91.90
16980;DHT22;42288;52.182;21.156;2023-10-09T12:17:04;12.10;92.40
16980;DHT22;42288;52.182;21.156;2023-10-09T12:19:33;12.20;92.90
16980;DHT22;42288;52.182;21.156;2023-10-09T12:22:03;12.40;93.40
16980;DHT22;42288;52.182;21.156;2023-10-09T12:24:30;12.40;93.60
16980;DHT22;42288;52.182;21.156;2023-10-09T12:26:56;12.40;93.60
16980;DHT22;42288;52.182;21.156;2023-10-09T12:29:22;12.50;94.20
16980;DHT22;42288;52.182;21.156;2023-10-09T12:31:49;12.50;94.00
16980;DHT22;42288;52.182;21.156;2023-10-09T12:34:26;12.40;94.50
16980;DHT22;42288;52.182;21.156;2023-10-09T12:36:55;12.40;95.60
16980;DHT22;42288;52.182;21.156;2023-10-09T12:39:24;12.30;95.30
16980;DHT22;42288;52.182;21.156;2023-10-09T12:41:50;12.00;95.60
16980;DHT22;42288;52.182;21.156;2023-10-09T12:44:19;12.00;96.50
16980;DHT22;42288;52.182;21.156;2023-10-09T12:46:46;12.00;97.10
16980;DHT22;42288;52.182;21.156;2023-10-09T12:49:21;12.10;96.70
16980;DHT22;42288;52.182;21.156;2023-10-09T12:51:56;12.00;97.00
16980;DHT22;42288;52.182;21.156;2023-10-09T12:54:24;12.00;97.60
16980;DHT22;42288;52.182;21.156;2023-10-09T12:56:53;12.00;97.30
16980;DHT22;42288;52.182;21.156;2023-10-09T12:59:19;12.00;98.10
16980;DHT22;42288;52.182;21.156;2023-10-09T13:01:45;11.90;97.90
16980;DHT22;42288;52.182;21.156;2023-10-09T13:04:15;11.90;98.30
16980;DHT22;42288;52.182;21.156;2023-10-09T13:06:45;11.90;98.70
16980;DHT22;42288;52.182;21.156;2023-10-09T13:09:12;11.80;98.90
16980;DHT22;42288;52.182;21.156;2023-10-09T13:11:39;11.80;98.50
16980;DHT22;42288;52.182;21.156;2023-10-09T13:14:06;12.00;98.90
16980;DHT22;42288;52.182;21.156;2023-10-09T13:16:42;11.90;99.10
16980;DHT22;42288;52.182;21.156;2023-10-09T13:19:08;11.90;98.90
16980;DHT22;42288;52.182;21.156;2023-10-09T13:21:37;11.90;98.60
16980;DHT22;42288;52.182;21.156;2023-10-09T13:24:06;11.80;98.30
16980;DHT22;42288;52.182;21.156;2023-10-09T13:26:38;11.90;98.40
16980;DHT22;42288;52.182;21.156;2023-10-09T13:29:06;11.90;98.90
16980;DHT22;42288;52.182;21.156;2023-10-09T13:31:35;11.80;99.10
16980;DHT22;42288;52.182;21.156;2023-10-09T13:34:04;11.80;99.10
16980;DHT22;42288;52.182;21.156;2023-10-09T13:36:32;11.80;99.50
16980;DHT22;42288;52.182;21.156;2023-10-09T13:39:06;11.70;98.80
16980;DHT22;42288;52.182;21.156;2023-10-09T13:41:53;11.70;99.60
16980;DHT22;42288;52.182;21.156;2023-10-09T13:44:26;11.50;99.90
16980;DHT22;42288;52.182;21.156;2023-10-09T13:46:56;11.50;99.30
16980;DHT22;42288;52.182;21.156;2023-10-09T13:49:22;11.50;99.50
16980;DHT22;42288;52.182;21.156;2023-10-09T13:51:49;11.50;99.60
16980;DHT22;42288;52.182;21.156;2023-10-09T13:54:16;11.50;99.60
16980;DHT22;42288;52.182;21.156;2023-10-09T13:56:54;11.30;99.60
16980;DHT22;42288;52.182;21.156;2023-10-09T13:59:20;11.20;99.60
16980;DHT22;42288;52.182;21.156;2023-10-09T14:01:54;11.10;99.90
16980;DHT22;42288;52.182;21.156;2023-10-09T14:04:21;11.10;99.90
16980;DHT22;42288;52.182;21.156;2023-10-09T14:06:49;11.00;99.90
16980;DHT22;42288;52.182;21.156;2023-10-09T14:09:15;11.00;99.90
16980;DHT22;42288;52.182;21.156;2023-10-09T14:12:00;10.90;99.90
16980;DHT22;42288;52.182;21.156;2023-10-09T14:14:36;10.80;99.90
16980;DHT22;42288;52.182;21.156;2023-10-09T14:17:18;10.80;99.90
16980;DHT22;42288;52.182;21.156;2023-10-09T14:19:55;10.70;99.90
16980;DHT22;42288;52.182;21.156;2023-10-09T14:22:23;10.60;99.90
16980;DHT22;42288;52.182;21.156;2023-10-09T14:24:53;10.60;99.90
16980;DHT22;42288;52.182;21.156;2023-10-09T14:27:24;10.50;99.90
16980;DHT22;42288;52.182;21.156;2023-10-09T14:29:59;10.50;99.90
16980;DHT22;42288;52.182;21.156;2023-10-09T14:32:25;10.40;99.90
16980;DHT22;42288;52.182;21.156;2023-10-09T14:34:54;10.50;99.90
16980;DHT22;42288;52.182;21.156;2023-10-09T14:37:20;10.40;99.90
16980;DHT22;42288;52.182;21.156;2023-10-09T14:39:46;10.40;99.90
16980;DHT22;42288;52.182;21.156;2023-10-09T14:42:17;10.40;99.90
16980;DHT22;42288;52.182;21.156;2023-10-09T14:44:43;10.30;99.90
16980;DHT22;42288;52.182;21.156;2023-10-09T14:47:10;10.40;99.90
16980;DHT22;42288;52.182;21.156;2023-10-09T14:49:36;10.40;99.90
16980;DHT22;42288;52.182;21.156;2023-10-09T14:52:03;10.30;99.90
16980;DHT22;42288;52.182;21.156;2023-10-09T14:54:34;10.20;99.90
16980;DHT22;42288;52.182;21.156;2023-10-09T14:56:59;10.10;99.90
16980;DHT22;42288;52.182;21.156;2023-10-09T14:59:25;10.10;99.90
16980;DHT22;42288;52.182;21.156;2023-10-09T15:01:51;10.00;99.90
16980;DHT22;42288;52.182;21.156;2023-10-09T15:04:19;10.00;99.90
16980;DHT22;42288;52.182;21.156;2023-10-09T15:06:45;9.90;99.90
16980;DHT22;42288;52.182;21.156;2023-10-09T15:09:15;9.90;99.90
16980;DHT22;42288;52.182;21.156;2023-10-09T15:11:54;9.80;99.90
16980;DHT22;42288;52.182;21.156;2023-10-09T15:14:20;9.90;99.90
16980;DHT22;42288;52.182;21.156;2023-10-09T15:16:46;9.80;99.90
16980;DHT22;42288;52.182;21.156;2023-10-09T15:19:12;9.80;99.90
16980;DHT22;42288;52.182;21.156;2023-10-09T15:21:38;9.80;99.90
16980;DHT22;42288;52.182;21.156;2023-10-09T15:24:14;9.80;99.90
16980;DHT22;42288;52.182;21.156;2023-10-09T15:26:50;9.80;99.90
16980;DHT22;42288;52.182;21.156;2023-10-09T15:29:26;9.80;99.90
16980;DHT22;42288;52.182;21.156;2023-10-09T15:31:59;9.70;99.90
16980;DHT22;42288;52.182;21.156;2023-10-09T15:34:39;9.70;99.90
16980;DHT22;42288;52.182;21.156;2023-10-09T15:37:06;9.60;99.90
16980;DHT22;42288;52.182;21.156;2023-10-09T15:39:35;9.50;99.90
16980;DHT22;42288;52.182;21.156;2023-10-09T15:42:02;9.50;99.90
16980;DHT22;42288;52.182;21.156;2023-10-09T15:44:34;9.40;99.90
16980;DHT22;42288;52.182;21.156;2023-10-09T15:47:02;9.40;99.90
16980;DHT22;42288;52.182;21.156;2023-10-09T15:49:28;9.30;99.90
16980;DHT22;42288;52.182;21.156;2023-10-09T15:51:56;9.20;99.90
16980;DHT22;42288;52.182;21.156;2023-10-09T15:54:23;9.20;99.90
16980;DHT22;42288;52.182;21.156;2023-10-09T15:56:49;9.10;99.90
16980;DHT22;42288;52.182;21.156;2023-10-09T15:59:14;9.10;99.90
16980;DHT22;42288;52.182;21.156;2023-10-09T16:01:42;9.00;99.90
16980;DHT22;42288;52.182;21.156;2023-10-09T16:04:08;8.90;99.90
16980;DHT22;42288;52.182;21.156;2023-10-09T16:06:36;8.90;99.90
16980;DHT22;42288;52.182;21.156;2023-10-09T16:09:05;8.90;99.90
16980;DHT22;42288;52.182;21.156;2023-10-09T16:11:31;8.90;99.90